createdAt,value
2018-04-06T00:02:20.672Z,4.50
2018-04-06T00:04:48.875Z,4.40
2018-04-06T00:07:16.989Z,4.50
2018-04-06T00:09:45.104Z,4.50
2018-04-06T00:12:13.209Z,4.40
2018-04-06T00:14:41.312Z,4.40
2018-04-06T00:17:09.489Z,4.30
2018-04-06T00:19:37.586Z,4.30
2018-04-06T00:22:05.834Z,4.30
2018-04-06T00:24:33.938Z,4.30
2018-04-06T00:27:02.055Z,4.30
2018-04-06T00:29:30.176Z,4.20
2018-04-06T00:31:58.337Z,4.20
2018-04-06T00:34:26.438Z,4.30
2018-04-06T00:36:54.615Z,4.20
2018-04-06T00:39:23.485Z,4.20
2018-04-06T00:41:51.673Z,4.20
2018-04-06T00:44:19.840Z,4.20
2018-04-06T00:46:47.949Z,4.20
2018-04-06T00:49:16.169Z,4.10
2018-04-06T00:51:44.303Z,4.10
2018-04-06T00:54:12.410Z,4.10
2018-04-06T00:56:40.507Z,4.00
2018-04-06T00:59:09.532Z,3.90
2018-04-06T01:01:37.718Z,3.80
2018-04-06T01:04:06.069Z,3.80
2018-04-06T01:06:34.948Z,3.70
2018-04-06T01:09:03.812Z,3.70
2018-04-06T01:11:31.914Z,3.60
2018-04-06T01:14:00.966Z,3.70
2018-04-06T01:16:29.114Z,3.70
2018-04-06T01:18:57.217Z,3.70
2018-04-06T01:21:25.338Z,3.70
2018-04-06T01:23:54.204Z,3.80
2018-04-06T01:26:22.305Z,3.80
2018-04-06T01:28:51.203Z,3.80
2018-04-06T01:31:19.306Z,3.80
2018-04-06T01:33:47.395Z,3.80
2018-04-06T01:36:15.528Z,3.80
2018-04-06T01:38:43.632Z,3.70
2018-04-06T01:41:11.743Z,3.70
2018-04-06T01:43:40.661Z,3.70
2018-04-06T01:46:08.802Z,3.60
2018-04-06T01:48:36.903Z,3.70
2018-04-06T01:51:05.022Z,3.70
2018-04-06T01:53:33.126Z,3.70
2018-04-06T01:56:02.020Z,3.70
2018-04-06T01:58:30.924Z,3.70
2018-04-06T02:00:59.096Z,3.70
2018-04-06T02:03:27.195Z,3.60
2018-04-06T02:05:55.311Z,3.60
2018-04-06T02:08:23.410Z,3.60
2018-04-06T02:10:52.282Z,3.60
2018-04-06T02:13:20.410Z,3.60
2018-04-06T02:15:48.502Z,3.60
2018-04-06T02:18:16.661Z,3.60
2018-04-06T02:20:44.778Z,3.50
2018-04-06T02:23:13.721Z,3.30
2018-04-06T02:25:41.832Z,3.40
2018-04-06T02:28:09.972Z,3.30
2018-04-06T02:30:38.695Z,3.20
2018-04-06T02:33:07.621Z,3.10
2018-04-06T02:35:35.750Z,3.10
2018-04-06T02:38:04.115Z,3.10
2018-04-06T02:40:32.239Z,3.10
2018-04-06T02:43:00.415Z,3.00
2018-04-06T02:45:28.604Z,3.00
2018-04-06T02:47:56.714Z,3.00
2018-04-06T02:50:24.854Z,3.00
2018-04-06T02:52:52.950Z,2.90
2018-04-06T02:55:21.048Z,2.90
2018-04-06T02:57:49.359Z,2.90
2018-04-06T03:00:18.217Z,2.80
2018-04-06T03:02:47.100Z,2.80
2018-04-06T03:05:15.214Z,2.70
2018-04-06T03:07:43.317Z,2.70
2018-04-06T03:10:11.441Z,2.60
2018-04-06T03:12:40.677Z,2.60
2018-04-06T03:15:09.599Z,2.60
2018-04-06T03:17:38.199Z,2.60
2018-04-06T03:20:06.351Z,2.60
2018-04-06T03:22:34.453Z,2.70
2018-04-06T03:25:03.333Z,2.70
2018-04-06T03:27:31.614Z,2.70
2018-04-06T03:30:00.490Z,2.60
2018-04-06T03:32:28.597Z,2.50
2018-04-06T03:34:57.480Z,2.40
2018-04-06T03:37:26.386Z,2.30
2018-04-06T03:39:54.497Z,2.30
2018-04-06T03:42:22.647Z,2.20
2018-04-06T03:44:50.787Z,2.10
2018-04-06T03:47:19.657Z,2.00
2018-04-06T03:49:47.776Z,2.00
2018-04-06T03:52:15.889Z,2.10
2018-04-06T03:54:44.922Z,2.00
2018-04-06T03:57:13.817Z,2.00
2018-04-06T03:59:41.984Z,2.00
2018-04-06T04:02:10.860Z,2.00
2018-04-06T04:04:39.751Z,1.90
2018-04-06T04:07:08.619Z,1.90
2018-04-06T04:09:36.727Z,1.90
2018-04-06T04:12:04.876Z,1.90
2018-04-06T04:14:32.973Z,1.90
2018-04-06T04:17:01.101Z,1.90
2018-04-06T04:19:29.222Z,1.90
2018-04-06T04:21:57.352Z,1.90
2018-04-06T04:24:25.467Z,1.90
2018-04-06T04:26:53.708Z,2.00
2018-04-06T04:29:21.878Z,2.00
2018-04-06T04:31:50.134Z,2.00
2018-04-06T04:34:18.230Z,2.00
2018-04-06T04:36:46.334Z,2.00
2018-04-06T04:39:15.299Z,1.90
2018-04-06T04:41:43.666Z,1.90
2018-04-06T04:44:11.780Z,1.90
2018-04-06T04:46:40.256Z,1.90
2018-04-06T04:49:08.386Z,1.90
2018-04-06T04:51:36.511Z,1.90
2018-04-06T04:54:04.645Z,1.90
2018-04-06T04:56:33.586Z,1.80
2018-04-06T04:59:01.803Z,1.80
2018-04-06T05:01:29.918Z,1.80
2018-04-06T05:03:58.083Z,1.90
2018-04-06T05:06:27.107Z,2.10
2018-04-06T05:08:55.360Z,2.10
2018-04-06T05:11:23.495Z,2.10
2018-04-06T05:13:51.651Z,2.00
2018-04-06T05:16:19.986Z,1.90
2018-04-06T05:18:48.368Z,1.90
2018-04-06T05:21:16.475Z,1.90
2018-04-06T05:23:44.600Z,1.90
2018-04-06T05:26:12.939Z,1.90
2018-04-06T05:28:41.132Z,1.90
2018-04-06T05:31:09.307Z,2.00
2018-04-06T05:33:37.435Z,2.00
2018-04-06T05:36:05.669Z,2.10
2018-04-06T05:38:34.553Z,2.30
2018-04-06T05:41:03.465Z,2.40
2018-04-06T05:43:31.716Z,2.40
2018-04-06T05:46:00.607Z,2.60
2018-04-06T05:48:29.611Z,2.70
2018-04-06T05:50:58.484Z,2.70
2018-04-06T05:53:26.705Z,2.70
2018-04-06T05:55:54.871Z,2.80
2018-04-06T05:58:23.095Z,2.90
2018-04-06T06:00:51.234Z,3.00
2018-04-06T06:03:19.581Z,3.00
2018-04-06T06:05:48.735Z,3.10
2018-04-06T06:08:16.864Z,3.20
2018-04-06T06:10:45.012Z,3.20
2018-04-06T06:13:13.911Z,3.60
2018-04-06T06:15:42.094Z,3.60
2018-04-06T06:18:11.019Z,3.90
2018-04-06T06:20:39.321Z,3.90
2018-04-06T06:23:07.543Z,4.00
2018-04-06T06:25:35.769Z,4.10
2018-04-06T06:28:03.901Z,4.20
2018-04-06T06:30:32.880Z,4.30
2018-04-06T06:33:01.829Z,4.40
2018-04-06T06:35:29.946Z,4.40
2018-04-06T06:37:58.052Z,4.40
2018-04-06T06:40:26.455Z,4.50
2018-04-06T06:42:54.591Z,4.60
2018-04-06T06:45:24.446Z,4.80
2018-04-06T06:47:52.932Z,4.70
2018-04-06T06:50:21.782Z,4.90
2018-04-06T06:52:50.241Z,4.90
2018-04-06T06:55:18.389Z,5.00
2018-04-06T06:57:47.465Z,5.20
2018-04-06T07:00:15.562Z,5.20
2018-04-06T07:02:44.460Z,5.30
2018-04-06T07:05:12.568Z,5.30
2018-04-06T07:07:41.505Z,5.50
2018-04-06T07:10:10.420Z,5.60
2018-04-06T07:12:39.284Z,5.60
2018-04-06T07:15:08.255Z,5.70
2018-04-06T07:17:36.400Z,5.70
2018-04-06T07:20:04.518Z,5.90
2018-04-06T07:22:32.628Z,6.00
2018-04-06T07:25:00.781Z,6.10
2018-04-06T07:27:29.697Z,6.40
2018-04-06T07:29:58.028Z,6.30
2018-04-06T07:32:27.662Z,6.50
2018-04-06T07:34:56.535Z,6.70
2018-04-06T07:37:25.446Z,6.80
2018-04-06T07:39:54.346Z,6.90
2018-04-06T07:42:22.659Z,6.90
2018-04-06T07:44:50.780Z,7.00
2018-04-06T07:47:18.950Z,7.10
2018-04-06T07:49:47.940Z,7.40
2018-04-06T07:52:16.817Z,7.50
2018-04-06T07:54:44.937Z,7.50
2018-04-06T07:57:13.040Z,7.60
2018-04-06T07:59:41.169Z,7.70
2018-04-06T08:02:09.307Z,7.80
2018-04-06T08:04:37.451Z,8.00
2018-04-06T08:07:07.193Z,8.20
2018-04-06T08:09:35.353Z,8.20
2018-04-06T08:12:03.466Z,8.40
2018-04-06T08:14:31.641Z,8.50
2018-04-06T08:16:59.780Z,8.60
2018-04-06T08:19:27.855Z,8.70
2018-04-06T08:21:56.744Z,8.90
2018-04-06T08:24:24.934Z,8.90
2018-04-06T08:26:53.812Z,9.00
2018-04-06T08:29:21.923Z,9.00
2018-04-06T08:31:50.110Z,9.00
2018-04-06T08:34:18.298Z,9.10
2018-04-06T08:36:46.412Z,9.30
2018-04-06T08:39:14.543Z,9.30
2018-04-06T08:41:42.655Z,9.30
2018-04-06T08:44:10.759Z,9.30
2018-04-06T08:46:38.891Z,9.40
2018-04-06T08:49:07.009Z,9.50
2018-04-06T08:51:35.273Z,9.50
2018-04-06T08:54:04.292Z,9.60
2018-04-06T08:56:32.462Z,9.60
2018-04-06T08:59:01.421Z,9.70
2018-04-06T09:01:30.309Z,9.90
2018-04-06T09:03:59.296Z,10.00
2018-04-06T09:06:27.482Z,10.00
2018-04-06T09:08:55.768Z,10.00
2018-04-06T09:11:23.893Z,10.00
2018-04-06T09:13:52.123Z,10.10
2018-04-06T09:16:20.288Z,10.20
2018-04-06T09:18:48.390Z,10.30
2018-04-06T09:21:16.558Z,10.30
2018-04-06T09:23:44.676Z,10.30
2018-04-06T09:26:12.799Z,10.40
2018-04-06T09:28:40.911Z,10.50
2018-04-06T09:31:09.060Z,10.50
2018-04-06T09:33:37.255Z,10.60
2018-04-06T09:36:05.580Z,10.70
2018-04-06T09:38:33.885Z,10.80
2018-04-06T09:41:02.088Z,10.90
2018-04-06T09:43:30.316Z,11.00
2018-04-06T09:45:58.574Z,11.20
2018-04-06T09:48:26.831Z,11.30
2018-04-06T09:50:55.144Z,11.30
2018-04-06T09:53:23.289Z,11.30
2018-04-06T09:55:52.161Z,11.50
2018-04-06T09:58:20.420Z,11.50
2018-04-06T10:00:48.631Z,11.60
2018-04-06T10:03:17.518Z,11.70
2018-04-06T10:05:45.627Z,11.70
2018-04-06T10:08:13.913Z,11.80
2018-04-06T10:10:42.081Z,11.80
2018-04-06T10:13:10.174Z,11.90
2018-04-06T10:19:13.916Z,12.10
2018-04-06T10:21:42.236Z,12.10
2018-04-06T10:24:10.354Z,12.10
2018-04-06T10:26:38.517Z,12.20
2018-04-06T10:29:06.640Z,12.30
2018-04-06T10:31:35.640Z,12.70
2018-04-06T10:34:04.589Z,12.90
2018-04-06T10:36:32.720Z,12.80
2018-04-06T10:39:00.849Z,13.00
2018-04-06T10:41:29.015Z,13.10
2018-04-06T10:43:57.136Z,13.20
2018-04-06T10:46:25.251Z,13.30
2018-04-06T10:48:53.398Z,13.50
2018-04-06T10:51:21.509Z,13.60
2018-04-06T10:53:49.609Z,13.70
2018-04-06T10:56:18.635Z,13.80
2018-04-06T10:58:46.794Z,13.70
2018-04-06T11:01:18.137Z,13.80
2018-04-06T11:03:47.224Z,14.00
2018-04-06T11:06:16.199Z,14.00
2018-04-06T11:08:44.360Z,14.00
2018-04-06T11:11:12.474Z,14.10
2018-04-06T11:13:40.596Z,14.10
2018-04-06T11:16:08.784Z,14.20
2018-04-06T11:18:36.894Z,14.20
2018-04-06T11:21:05.091Z,14.20
2018-04-06T11:23:33.235Z,14.30
2018-04-06T11:26:01.602Z,14.30
2018-04-06T11:28:30.516Z,14.40
2018-04-06T11:30:58.702Z,14.40
2018-04-06T11:33:26.800Z,14.50
2018-04-06T11:35:54.925Z,14.60
2018-04-06T11:38:23.845Z,14.70
2018-04-06T11:40:51.965Z,14.70
2018-04-06T11:43:20.242Z,14.70
2018-04-06T11:45:49.377Z,15.00
2018-04-06T11:48:17.508Z,15.00
2018-04-06T11:50:45.990Z,14.90
2018-04-06T11:53:14.166Z,14.90
2018-04-06T11:55:42.327Z,15.00
2018-04-06T11:58:10.437Z,15.00
2018-04-06T12:00:38.614Z,15.10
2018-04-06T12:03:07.485Z,15.20
2018-04-06T12:05:36.381Z,15.20
2018-04-06T12:08:04.866Z,15.20
2018-04-06T12:10:33.857Z,15.30
2018-04-06T12:13:02.111Z,15.30
2018-04-06T12:15:30.215Z,15.30
2018-04-06T12:17:59.105Z,15.50
2018-04-06T12:20:27.297Z,15.50
2018-04-06T12:22:55.429Z,15.60
2018-04-06T12:25:24.474Z,15.70
2018-04-06T12:27:52.575Z,15.70
2018-04-06T12:30:20.891Z,15.80
2018-04-06T12:32:49.765Z,16.00
2018-04-06T12:35:18.660Z,16.00
2018-04-06T12:37:47.716Z,16.10
2018-04-06T12:40:15.829Z,16.00
2018-04-06T12:42:44.741Z,16.20
2018-04-06T12:45:12.910Z,16.20
2018-04-06T12:47:41.029Z,16.30
2018-04-06T12:50:09.143Z,16.40
2018-04-06T12:52:37.488Z,16.40
2018-04-06T12:55:05.887Z,16.40
2018-04-06T12:57:34.766Z,16.50
2018-04-06T13:00:02.920Z,16.50
2018-04-06T13:02:31.032Z,16.50
2018-04-06T13:04:59.942Z,16.40
2018-04-06T13:07:28.574Z,16.40
2018-04-06T13:09:56.762Z,16.50
2018-04-06T13:12:24.922Z,16.70
2018-04-06T13:14:53.165Z,16.70
2018-04-06T13:17:21.358Z,16.70
2018-04-06T13:19:49.591Z,16.60
2018-04-06T13:22:18.480Z,16.70
2018-04-06T13:24:47.375Z,16.80
2018-04-06T13:27:16.383Z,16.90
2018-04-06T13:29:44.575Z,16.90
2018-04-06T13:32:12.762Z,17.00
2018-04-06T13:34:40.891Z,17.00
2018-04-06T13:37:09.053Z,17.00
2018-04-06T13:39:37.149Z,17.10
2018-04-06T13:45:40.636Z,17.10
2018-04-06T13:48:09.581Z,17.30
2018-04-06T13:50:38.000Z,17.30
2018-04-06T13:53:06.168Z,17.40
2018-04-06T13:55:34.365Z,17.40
2018-04-06T13:58:03.279Z,17.50
2018-04-06T14:00:31.737Z,17.50
2018-04-06T14:03:00.632Z,17.80
2018-04-06T14:05:29.681Z,17.70
2018-04-06T14:07:57.853Z,17.70
2018-04-06T14:10:26.288Z,17.80
2018-04-06T14:12:55.169Z,18.10
2018-04-06T14:15:24.692Z,18.20
2018-04-06T14:17:52.789Z,18.20
2018-04-06T14:20:21.084Z,18.10
2018-04-06T14:22:49.250Z,18.10
2018-04-06T14:25:17.384Z,18.10
2018-04-06T14:27:45.555Z,18.10
2018-04-06T14:30:13.748Z,18.20
2018-04-06T14:32:41.853Z,18.20
2018-04-06T14:35:09.975Z,18.20
2018-04-06T14:37:38.155Z,18.30
2018-04-06T14:40:07.015Z,18.50
2018-04-06T14:42:35.904Z,18.70
2018-04-06T14:45:04.824Z,19.00
2018-04-06T14:47:32.991Z,19.00
2018-04-06T14:50:01.100Z,19.20
2018-04-06T14:52:29.276Z,19.20
2018-04-06T14:54:57.387Z,19.00
2018-04-06T14:57:25.512Z,19.10
2018-04-06T14:59:53.657Z,19.20
2018-04-06T15:02:21.937Z,19.20
2018-04-06T15:04:50.197Z,19.30
2018-04-06T15:07:18.480Z,19.30
2018-04-06T15:09:46.658Z,19.40
2018-04-06T15:12:14.830Z,19.40
2018-04-06T15:14:42.991Z,19.30
2018-04-06T15:17:11.252Z,19.40
2018-04-06T15:19:39.389Z,19.30
2018-04-06T15:22:07.687Z,19.10
2018-04-06T15:24:35.827Z,19.10
2018-04-06T15:27:04.064Z,19.00
2018-04-06T15:29:32.251Z,18.90
2018-04-06T15:32:01.153Z,18.80
2018-04-06T15:34:29.295Z,18.80
2018-04-06T15:36:57.442Z,18.90
2018-04-06T15:39:25.804Z,19.10
2018-04-06T15:41:53.919Z,19.20
2018-04-06T15:44:22.212Z,19.30
2018-04-06T15:46:50.343Z,19.70
2018-04-06T15:49:18.452Z,20.20
2018-04-06T15:51:47.353Z,20.30
2018-04-06T15:54:15.606Z,20.30
2018-04-06T15:56:44.511Z,20.60
2018-04-06T15:59:12.657Z,20.60
2018-04-06T16:01:42.152Z,21.10
2018-04-06T16:04:10.251Z,21.00
2018-04-06T16:06:38.397Z,21.00
2018-04-06T16:09:06.892Z,21.00
2018-04-06T16:11:34.998Z,20.70
2018-04-06T16:14:03.329Z,20.30
2018-04-06T16:16:31.443Z,20.00
2018-04-06T16:19:00.385Z,19.40
2018-04-06T16:21:28.531Z,19.40
2018-04-06T16:23:56.644Z,19.10
2018-04-06T16:26:24.758Z,18.80
2018-04-06T16:28:52.924Z,18.60
2018-04-06T16:31:21.899Z,18.40
2018-04-06T16:33:50.034Z,18.40
2018-04-06T16:36:18.280Z,18.40
2018-04-06T16:38:46.393Z,18.50
2018-04-06T16:41:14.519Z,18.50
2018-04-06T16:43:43.115Z,18.40
2018-04-06T16:46:11.274Z,18.40
2018-04-06T16:48:40.135Z,18.30
2018-04-06T16:51:08.262Z,18.20
2018-04-06T16:53:36.381Z,18.30
2018-04-06T16:56:04.541Z,18.30
2018-04-06T16:58:32.696Z,18.30
2018-04-06T17:01:00.819Z,18.40
2018-04-06T17:03:28.994Z,18.50
2018-04-06T17:05:57.892Z,18.50
2018-04-06T17:08:26.077Z,18.50
2018-04-06T17:10:55.872Z,18.40
2018-04-06T17:13:24.776Z,18.00
2018-04-06T17:15:52.946Z,18.00
2018-04-06T17:18:21.187Z,17.90
2018-04-06T17:20:49.327Z,17.80
2018-04-06T17:23:17.456Z,17.70
2018-04-06T17:25:46.325Z,17.50
2018-04-06T17:28:14.626Z,17.40
2018-04-06T17:30:43.519Z,17.30
2018-04-06T17:33:12.411Z,17.20
2018-04-06T17:35:41.351Z,17.00
2018-04-06T17:38:09.457Z,17.00
2018-04-06T17:40:38.333Z,16.80
2018-04-06T17:43:06.489Z,16.80
2018-04-06T17:45:38.822Z,16.70
2018-04-06T17:48:06.952Z,16.60
2018-04-06T17:50:35.132Z,16.50
2018-04-06T17:53:04.014Z,16.20
2018-04-06T17:55:32.163Z,16.20
2018-04-06T17:58:00.281Z,16.10
2018-04-06T18:00:29.150Z,15.90
2018-04-06T18:02:57.275Z,15.90
2018-04-06T18:05:25.540Z,15.80
2018-04-06T18:07:53.645Z,15.80
2018-04-06T18:10:22.708Z,15.60
2018-04-06T18:12:50.814Z,15.50
2018-04-06T18:15:18.943Z,15.50
2018-04-06T18:17:47.335Z,15.30
2018-04-06T18:20:15.541Z,15.20
2018-04-06T18:22:43.667Z,15.10
2018-04-06T18:25:12.547Z,14.90
2018-04-06T18:27:40.661Z,14.90
2018-04-06T18:30:08.773Z,14.80
2018-04-06T18:32:37.076Z,14.80
2018-04-06T18:35:05.177Z,14.70
2018-04-06T18:37:33.297Z,14.70
2018-04-06T18:40:01.614Z,14.60
2018-04-06T18:42:29.719Z,14.60
2018-04-06T18:44:58.023Z,14.50
2018-04-06T18:47:26.143Z,14.50
2018-04-06T18:49:54.266Z,14.40
2018-04-06T18:52:22.350Z,14.30
2018-04-06T18:54:51.248Z,14.20
2018-04-06T18:57:20.134Z,14.10
2018-04-06T18:59:48.303Z,14.10
2018-04-06T19:02:17.316Z,13.90
2018-04-06T19:04:46.212Z,13.90
2018-04-06T19:07:15.083Z,13.90
2018-04-06T19:09:44.094Z,13.80
2018-04-06T19:12:12.972Z,13.70
2018-04-06T19:14:41.212Z,13.70
2018-04-06T19:17:09.349Z,13.70
2018-04-06T19:19:37.669Z,13.60
2018-04-06T19:22:05.786Z,13.60
2018-04-06T19:24:34.720Z,13.50
2018-04-06T19:27:02.856Z,13.50
2018-04-06T19:29:31.694Z,13.50
2018-04-06T19:31:59.904Z,13.40
2018-04-06T19:34:28.015Z,13.40
2018-04-06T19:36:56.262Z,13.40
2018-04-06T19:39:25.142Z,13.20
2018-04-06T19:41:54.685Z,13.20
2018-04-06T19:44:22.800Z,13.10
2018-04-06T19:46:51.072Z,13.10
2018-04-06T19:49:19.206Z,13.00
2018-04-06T19:51:47.439Z,13.00
2018-04-06T19:54:16.455Z,12.90
2018-04-06T19:56:44.681Z,12.90
2018-04-06T19:59:12.786Z,12.80
2018-04-06T20:01:41.923Z,12.70
2018-04-06T20:04:10.831Z,12.60
2018-04-06T20:06:38.962Z,12.60
2018-04-06T20:09:07.129Z,12.50
2018-04-06T20:11:36.112Z,12.30
2018-04-06T20:14:05.002Z,12.10
2018-04-06T20:16:33.164Z,12.10
2018-04-06T20:19:01.283Z,12.10
2018-04-06T20:21:29.374Z,12.10
2018-04-06T20:23:57.685Z,12.10
2018-04-06T20:26:25.831Z,12.00
2018-04-06T20:28:53.955Z,12.00
2018-04-06T20:31:22.104Z,11.90
2018-04-06T20:33:50.996Z,11.80
2018-04-06T20:36:19.904Z,11.80
2018-04-06T20:38:49.040Z,11.70
2018-04-06T20:41:17.377Z,11.70
2018-04-06T20:43:46.288Z,11.60
2018-04-06T20:46:14.453Z,11.60
2018-04-06T20:48:42.559Z,11.60
2018-04-06T20:51:10.683Z,11.50
2018-04-06T20:53:38.988Z,11.40
2018-04-06T20:56:07.095Z,11.40
2018-04-06T20:58:35.190Z,11.40
2018-04-06T21:01:03.397Z,11.30
2018-04-06T21:03:31.521Z,11.20
2018-04-06T21:05:59.725Z,11.10
2018-04-06T21:08:29.421Z,11.10
2018-04-06T21:10:57.754Z,11.00
2018-04-06T21:13:25.877Z,10.90
2018-04-06T21:15:54.161Z,10.90
2018-04-06T21:18:23.056Z,10.80
2018-04-06T21:20:51.945Z,10.70
2018-04-06T21:23:20.831Z,10.70
2018-04-06T21:25:49.142Z,10.70
2018-04-06T21:28:18.193Z,10.60
2018-04-06T21:30:46.456Z,10.60
2018-04-06T21:33:14.703Z,10.60
2018-04-06T21:35:42.826Z,10.60
2018-04-06T21:38:11.760Z,10.40
2018-04-06T21:40:39.863Z,10.40
2018-04-06T21:43:08.139Z,10.30
2018-04-06T21:45:37.141Z,10.40
2018-04-06T21:48:05.265Z,10.40
2018-04-06T21:50:33.397Z,10.50
2018-04-06T21:53:01.517Z,10.60
2018-04-06T21:55:29.653Z,10.60
2018-04-06T21:57:57.860Z,10.70
2018-04-06T22:00:26.076Z,10.70
2018-04-06T22:02:54.401Z,10.80
2018-04-06T22:05:22.553Z,10.90
2018-04-06T22:07:51.524Z,10.90
2018-04-06T22:10:19.693Z,10.90
2018-04-06T22:12:47.818Z,11.00
2018-04-06T22:15:16.811Z,11.00
2018-04-06T22:17:44.926Z,11.00
2018-04-06T22:20:13.063Z,11.10
2018-04-06T22:22:41.475Z,11.00
2018-04-06T22:25:09.646Z,11.00
2018-04-06T22:27:37.886Z,11.00
2018-04-06T22:30:06.036Z,11.00
2018-04-06T22:32:35.003Z,10.90
2018-04-06T22:35:03.587Z,10.80
2018-04-06T22:37:31.989Z,10.80
2018-04-06T22:40:00.108Z,10.70
2018-04-06T22:42:28.649Z,10.70
2018-04-06T22:44:56.849Z,10.70
2018-04-06T22:47:24.964Z,10.50
2018-04-06T22:49:53.095Z,10.50
2018-04-06T22:52:21.406Z,10.50
2018-04-06T22:54:49.698Z,10.50
2018-04-06T22:57:17.819Z,10.40
2018-04-06T22:59:45.990Z,10.30
2018-04-06T23:02:14.117Z,10.20
2018-04-06T23:04:42.240Z,10.10
2018-04-06T23:07:10.419Z,10.00
2018-04-06T23:09:38.633Z,10.10
2018-04-06T23:12:06.816Z,10.00
2018-04-06T23:14:34.958Z,10.00
2018-04-06T23:17:04.082Z,9.90
2018-04-06T23:19:32.380Z,9.90
2018-04-06T23:22:01.284Z,9.70
2018-04-06T23:24:29.480Z,9.70
2018-04-06T23:26:57.694Z,9.60
2018-04-06T23:29:25.991Z,9.50
2018-04-06T23:31:55.042Z,9.40
2018-04-06T23:34:23.181Z,9.30
2018-04-06T23:36:52.100Z,9.10
2018-04-06T23:39:20.251Z,9.10
2018-04-06T23:41:48.377Z,9.00
2018-04-06T23:44:16.544Z,9.00
2018-04-06T23:46:44.678Z,8.90
2018-04-06T23:49:12.907Z,8.80
2018-04-06T23:51:41.034Z,8.60
2018-04-06T23:54:09.141Z,8.60
2018-04-06T23:56:37.255Z,8.50
2018-04-06T23:59:05.406Z,8.50
